Terminal Aerodrome Forecast
Issued by NWS

Home | Current Version | Previous Version | Text Only | Print | Product List | Glossary On
Versions: 1 2 3 4 5 6 7 8 9 10 11 12 13 14 15 16 17 18 19
000
FTUS44 KLZK 290500 RRA
TAFLLQ
TAF
KLLQ 290552Z 2906/3006 04004KT P6SM BKN006 OVC045
     FM290900 04004KT P6SM BKN012 BKN070
     FM291700 04005KT P6SM BKN250
     FM300000 03004KT P6SM BKN250=

USA.gov is the U.S. government's official web portal to all federal, state and local government web resources and services.